Aérodrome :
LOGIN :

S'inscrire | Disclaimer

   EN    FR    IT 

 










Légende :    VFR   VFR Marginal   IFR   IFR Intensif   IFR Très Intensif
Visi : 
Plafond : 
>= 8 km
>= 3000ft
5 à 8 km
1000 à 3000 ft
1500m à 5 km
500 à 1000 ft
800 à 1500m
200 à 500 ft
< 800m
< 200 ft
Symboles :   Orages  Brouillard  Fortes neiges  Fortes précipitations  Vent > 20 kt
SIGMETs :   Divers  Orages  Givrage  Turbulence  Onde Orograph.  Cendres Volcan.






- Altitude de l'aérodrome : 1465 ft


LSMP - Payerne

DERNIER METAR :
  • 210320Z AUTO 00000KT 3900NDV BR FEW014 SCT027 BKN032 12/12 Q1016 RMK

METARs EXPIRÉS :
  • 210250Z AUTO VRB01KT 3700NDV BR FEW036 12/12 Q1015 RMK
  • 210220Z AUTO VRB02KT 3600NDV BR FEW017 SCT160 12/11 Q1014 RMK
  • 210150Z AUTO 00000KT 3100NDV -RA BR FEW015 SCT018 12/12 Q1015 RMK
  • 210120Z AUTO 00000KT 4100NDV -RA BR FEW002 SCT018 12/12 Q1015 RMK
  • 210050Z AUTO VRB01KT 3600NDV -RA BR FEW039 SCT058 12/12 Q1015 RERA RMK
  • 210020Z AUTO VRB01KT 3300NDV -RA BR FEW025 SCT038 12/12 Q1014 RERA RMK

Prévision TAF périmée.



MET'MAP, la Météo Aéronautique d'un coup d'oeil ! - Copyright ORBIFLY Décembre 2007 - Disclaimer

ORBIFLY MET'MAP TEAM :

Programmation & Développement : Alexandra Zaïnal
Conception & Développement : Baudouin d'Aumeries
Co-Programmation & Développement : Marc-Olivier Méhu
Soutien technique & logistique : Manuel Goepfert

Contact : metmap@orbifly.com




SOURCES & CREDITS :

   NOAA